sensor_id;sensor_type;location;lat;lon;timestamp;pressure;altitude;pressure_sealevel;temperature;humidity
80405;BME280;69733;48.744;9.176;2023-10-09T00:00:54;97413.63;;;11.54;70.64
80405;BME280;69733;48.744;9.176;2023-10-09T00:03:43;97413.81;;;11.53;70.77
80405;BME280;69733;48.744;9.176;2023-10-09T00:06:09;97406.06;;;11.51;70.82
80405;BME280;69733;48.744;9.176;2023-10-09T00:08:38;97408.94;;;11.49;70.67
80405;BME280;69733;48.744;9.176;2023-10-09T00:11:05;97404.88;;;11.47;71.17
80405;BME280;69733;48.744;9.176;2023-10-09T00:13:43;97406.09;;;11.44;71.18
80405;BME280;69733;48.744;9.176;2023-10-09T00:16:19;97405.31;;;11.44;71.17
80405;BME280;69733;48.744;9.176;2023-10-09T00:19:12;97395.06;;;11.41;71.03
80405;BME280;69733;48.744;9.176;2023-10-09T00:21:51;97401.66;;;11.38;71.06
80405;BME280;69733;48.744;9.176;2023-10-09T00:24:20;97403.72;;;11.36;71.00
80405;BME280;69733;48.744;9.176;2023-10-09T00:26:52;97396.75;;;11.35;71.18
80405;BME280;69733;48.744;9.176;2023-10-09T00:29:21;97401.28;;;11.35;71.24
80405;BME280;69733;48.744;9.176;2023-10-09T00:31:54;97396.97;;;11.34;71.46
80405;BME280;69733;48.744;9.176;2023-10-09T00:34:42;97395.34;;;11.33;71.31
80405;BME280;69733;48.744;9.176;2023-10-09T00:37:08;97390.22;;;11.31;71.16
80405;BME280;69733;48.744;9.176;2023-10-09T00:39:48;97390.22;;;11.31;71.22
80405;BME280;69733;48.744;9.176;2023-10-09T00:42:21;97387.81;;;11.30;71.30
80405;BME280;69733;48.744;9.176;2023-10-09T00:44:54;97388.00;;;11.28;71.30
80405;BME280;69733;48.744;9.176;2023-10-09T00:47:19;97383.72;;;11.27;71.50
80405;BME280;69733;48.744;9.176;2023-10-09T00:52:31;97388.22;;;11.27;71.51
80405;BME280;69733;48.744;9.176;2023-10-09T00:55:02;97376.78;;;11.26;71.48
80405;BME280;69733;48.744;9.176;2023-10-09T00:57:34;97377.78;;;11.25;71.49
80405;BME280;69733;48.744;9.176;2023-10-09T01:00:03;97377.78;;;11.25;71.47
80405;BME280;69733;48.744;9.176;2023-10-09T01:02:36;97370.00;;;11.24;71.59
80405;BME280;69733;48.744;9.176;2023-10-09T01:05:03;97376.16;;;11.24;71.74
80405;BME280;69733;48.744;9.176;2023-10-09T01:07:46;97372.47;;;11.25;71.58
80405;BME280;69733;48.744;9.176;2023-10-09T01:10:12;97373.50;;;11.24;71.78
80405;BME280;69733;48.744;9.176;2023-10-09T01:12:41;97375.94;;;11.26;72.32
80405;BME280;69733;48.744;9.176;2023-10-09T01:15:09;97368.78;;;11.26;71.78
80405;BME280;69733;48.744;9.176;2023-10-09T01:17:43;97369.38;;;11.28;71.65
80405;BME280;69733;48.744;9.176;2023-10-09T01:20:11;97369.94;;;11.30;71.76
80405;BME280;69733;48.744;9.176;2023-10-09T01:22:42;97364.22;;;11.33;71.63
80405;BME280;69733;48.744;9.176;2023-10-09T01:25:08;97362.94;;;11.36;71.67
80405;BME280;69733;48.744;9.176;2023-10-09T01:27:35;97365.97;;;11.39;71.81
80405;BME280;69733;48.744;9.176;2023-10-09T01:30:06;97359.41;;;11.42;71.83
80405;BME280;69733;48.744;9.176;2023-10-09T01:32:31;97365.09;;;11.45;71.80
80405;BME280;69733;48.744;9.176;2023-10-09T01:34:57;97352.38;;;11.47;72.22
80405;BME280;69733;48.744;9.176;2023-10-09T01:37:23;97356.22;;;11.52;71.67
80405;BME280;69733;48.744;9.176;2023-10-09T01:40:00;97356.59;;;11.55;71.70
80405;BME280;69733;48.744;9.176;2023-10-09T01:42:45;97350.84;;;11.58;71.67
80405;BME280;69733;48.744;9.176;2023-10-09T01:45:11;97354.91;;;11.61;72.03
80405;BME280;69733;48.744;9.176;2023-10-09T01:47:48;97357.94;;;11.64;72.13
80405;BME280;69733;48.744;9.176;2023-10-09T01:50:23;97353.19;;;11.66;71.66
80405;BME280;69733;48.744;9.176;2023-10-09T01:52:52;97354.63;;;11.69;71.67
80405;BME280;69733;48.744;9.176;2023-10-09T01:55:17;97344.56;;;11.71;71.67
80405;BME280;69733;48.744;9.176;2023-10-09T01:58:04;97337.16;;;11.73;71.95
80405;BME280;69733;48.744;9.176;2023-10-09T02:00:47;97337.78;;;11.75;72.09
80405;BME280;69733;48.744;9.176;2023-10-09T02:03:22;97337.53;;;11.76;72.30
80405;BME280;69733;48.744;9.176;2023-10-09T02:06:02;97334.88;;;11.76;71.93
80405;BME280;69733;48.744;9.176;2023-10-09T02:08:30;97332.00;;;11.78;72.24
80405;BME280;69733;48.744;9.176;2023-10-09T02:10:56;97338.97;;;11.79;72.14
80405;BME280;69733;48.744;9.176;2023-10-09T02:13:24;97337.91;;;11.80;72.29
80405;BME280;69733;48.744;9.176;2023-10-09T02:15:59;97335.03;;;11.81;72.27
80405;BME280;69733;48.744;9.176;2023-10-09T02:18:39;97332.34;;;11.81;72.28
80405;BME280;69733;48.744;9.176;2023-10-09T02:21:06;97324.16;;;11.83;72.42
80405;BME280;69733;48.744;9.176;2023-10-09T02:23:34;97326.00;;;11.82;72.52
80405;BME280;69733;48.744;9.176;2023-10-09T02:26:06;97322.50;;;11.82;73.15
80405;BME280;69733;48.744;9.176;2023-10-09T02:28:33;97332.34;;;11.81;72.74
80405;BME280;69733;48.744;9.176;2023-10-09T02:30:59;97323.53;;;11.81;72.76
80405;BME280;69733;48.744;9.176;2023-10-09T02:33:35;97327.03;;;11.81;72.72
80405;BME280;69733;48.744;9.176;2023-10-09T02:36:04;97322.50;;;11.82;72.54
80405;BME280;69733;48.744;9.176;2023-10-09T02:38:32;97321.47;;;11.83;72.90
80405;BME280;69733;48.744;9.176;2023-10-09T02:41:01;97322.06;;;11.85;72.74
80405;BME280;69733;48.744;9.176;2023-10-09T02:43:45;97325.31;;;11.87;72.83
80405;BME280;69733;48.744;9.176;2023-10-09T02:46:15;97316.28;;;11.88;72.78
80405;BME280;69733;48.744;9.176;2023-10-09T02:48:47;97324.06;;;11.89;72.80
80405;BME280;69733;48.744;9.176;2023-10-09T02:51:22;97329.16;;;11.91;72.78
80405;BME280;69733;48.744;9.176;2023-10-09T02:54:09;97321.97;;;11.91;72.96
80405;BME280;69733;48.744;9.176;2023-10-09T02:56:53;97329.78;;;11.93;72.98
80405;BME280;69733;48.744;9.176;2023-10-09T02:59:30;97324.19;;;11.94;72.96
80405;BME280;69733;48.744;9.176;2023-10-09T03:01:55;97328.50;;;11.95;73.00
80405;BME280;69733;48.744;9.176;2023-10-09T03:04:22;97322.94;;;11.97;72.81
80405;BME280;69733;48.744;9.176;2023-10-09T03:06:48;97321.06;;;11.97;73.07
80405;BME280;69733;48.744;9.176;2023-10-09T03:09:17;97319.00;;;12.00;72.92
80405;BME280;69733;48.744;9.176;2023-10-09T03:11:47;97321.44;;;12.01;73.08
80405;BME280;69733;48.744;9.176;2023-10-09T03:14:14;97312.66;;;12.01;73.14
80405;BME280;69733;48.744;9.176;2023-10-09T03:16:41;97316.72;;;12.03;73.05
80405;BME280;69733;48.744;9.176;2023-10-09T03:19:06;97310.34;;;12.04;73.03
80405;BME280;69733;48.744;9.176;2023-10-09T03:21:32;97307.69;;;12.04;73.27
80405;BME280;69733;48.744;9.176;2023-10-09T03:23:58;97303.75;;;12.07;73.07
80405;BME280;69733;48.744;9.176;2023-10-09T03:26:23;97302.91;;;12.06;73.15
80405;BME280;69733;48.744;9.176;2023-10-09T03:28:51;97296.78;;;12.06;73.26
80405;BME280;69733;48.744;9.176;2023-10-09T03:31:17;97296.56;;;12.07;73.35
80405;BME280;69733;48.744;9.176;2023-10-09T03:33:43;97288.56;;;12.07;73.34
80405;BME280;69733;48.744;9.176;2023-10-09T03:36:08;97292.84;;;12.08;73.38
80405;BME280;69733;48.744;9.176;2023-10-09T03:38:37;97297.13;;;12.09;73.42
80405;BME280;69733;48.744;9.176;2023-10-09T03:41:07;97288.31;;;12.09;73.31
80405;BME280;69733;48.744;9.176;2023-10-09T03:43:35;97289.13;;;12.09;73.53
80405;BME280;69733;48.744;9.176;2023-10-09T03:46:10;97293.44;;;12.10;73.38
80405;BME280;69733;48.744;9.176;2023-10-09T03:48:47;97293.44;;;12.10;73.68
80405;BME280;69733;48.744;9.176;2023-10-09T03:51:13;97296.69;;;12.12;73.25
80405;BME280;69733;48.744;9.176;2023-10-09T03:53:40;97295.84;;;12.12;73.56
80405;BME280;69733;48.744;9.176;2023-10-09T03:56:06;97294.00;;;12.12;73.58
80405;BME280;69733;48.744;9.176;2023-10-09T03:58:49;97294.84;;;12.13;73.30
80405;BME280;69733;48.744;9.176;2023-10-09T04:01:17;97285.19;;;12.12;73.74
80405;BME280;69733;48.744;9.176;2023-10-09T04:03:51;97288.69;;;12.12;73.67
80405;BME280;69733;48.744;9.176;2023-10-09T04:06:24;97284.41;;;12.11;73.72
80405;BME280;69733;48.744;9.176;2023-10-09T04:09:02;97291.59;;;12.11;73.64
80405;BME280;69733;48.744;9.176;2023-10-09T04:11:40;97284.81;;;12.08;73.86
80405;BME280;69733;48.744;9.176;2023-10-09T04:14:09;97292.25;;;12.06;73.99
80405;BME280;69733;48.744;9.176;2023-10-09T04:16:49;97289.22;;;12.03;74.16
80405;BME280;69733;48.744;9.176;2023-10-09T04:19:18;97288.66;;;12.01;74.27
80405;BME280;69733;48.744;9.176;2023-10-09T04:21:47;97289.88;;;11.98;74.14
80405;BME280;69733;48.744;9.176;2023-10-09T04:24:13;97293.63;;;11.97;74.22
80405;BME280;69733;48.744;9.176;2023-10-09T04:26:43;97283.38;;;11.94;74.38
80405;BME280;69733;48.744;9.176;2023-10-09T04:29:13;97290.78;;;11.92;74.49
80405;BME280;69733;48.744;9.176;2023-10-09T04:32:02;97286.50;;;11.91;74.43
80405;BME280;69733;48.744;9.176;2023-10-09T04:34:28;97283.25;;;11.89;74.34
80405;BME280;69733;48.744;9.176;2023-10-09T04:36:55;97290.44;;;11.88;74.58
80405;BME280;69733;48.744;9.176;2023-10-09T04:39:26;97294.13;;;11.87;74.38
80405;BME280;69733;48.744;9.176;2023-10-09T04:41:55;97293.31;;;11.87;74.42
80405;BME280;69733;48.744;9.176;2023-10-09T04:44:43;97299.69;;;11.86;74.52
80405;BME280;69733;48.744;9.176;2023-10-09T04:47:27;97289.50;;;11.83;74.73
80405;BME280;69733;48.744;9.176;2023-10-09T04:50:06;97289.50;;;11.83;74.60
80405;BME280;69733;48.744;9.176;2023-10-09T04:52:33;97286.00;;;11.82;74.77
80405;BME280;69733;48.744;9.176;2023-10-09T04:55:00;97286.00;;;11.82;74.38
80405;BME280;69733;48.744;9.176;2023-10-09T04:57:41;97285.41;;;11.80;74.61
80405;BME280;69733;48.744;9.176;2023-10-09T05:00:11;97286.22;;;11.81;74.61
80405;BME280;69733;48.744;9.176;2023-10-09T05:02:57;97287.25;;;11.80;74.53
80405;BME280;69733;48.744;9.176;2023-10-09T05:05:25;97286.22;;;11.81;74.66
80405;BME280;69733;48.744;9.176;2023-10-09T05:10:49;97280.88;;;11.81;74.73
80405;BME280;69733;48.744;9.176;2023-10-09T05:13:27;97285.19;;;11.82;74.54
80405;BME280;69733;48.744;9.176;2023-10-09T05:16:14;97295.59;;;11.83;74.61
80405;BME280;69733;48.744;9.176;2023-10-09T05:18:53;97300.72;;;11.85;74.65
80405;BME280;69733;48.744;9.176;2023-10-09T05:23:57;97299.69;;;11.86;74.57
80405;BME280;69733;48.744;9.176;2023-10-09T05:26:38;97299.69;;;11.86;74.66
80405;BME280;69733;48.744;9.176;2023-10-09T05:29:10;97295.97;;;11.87;74.64
80405;BME280;69733;48.744;9.176;2023-10-09T05:31:51;97298.88;;;11.85;74.52
80405;BME280;69733;48.744;9.176;2023-10-09T05:34:29;97298.06;;;11.85;74.75
80405;BME280;69733;48.744;9.176;2023-10-09T05:37:13;97309.75;;;11.84;74.42
80405;BME280;69733;48.744;9.176;2023-10-09T05:39:45;97307.09;;;11.84;75.07
80405;BME280;69733;48.744;9.176;2023-10-09T05:42:32;97308.94;;;11.83;74.68
80405;BME280;69733;48.744;9.176;2023-10-09T05:45:07;97311.41;;;11.85;74.65
80405;BME280;69733;48.744;9.176;2023-10-09T05:47:49;97311.41;;;11.85;74.77
80405;BME280;69733;48.744;9.176;2023-10-09T05:50:32;97313.03;;;11.86;74.83
80405;BME280;69733;48.744;9.176;2023-10-09T05:53:01;97317.91;;;11.89;74.69
80405;BME280;69733;48.744;9.176;2023-10-09T05:55:28;97313.16;;;11.91;74.61
80405;BME280;69733;48.744;9.176;2023-10-09T05:58:12;97309.25;;;11.93;74.44
80405;BME280;69733;48.744;9.176;2023-10-09T06:00:56;97316.56;;;11.98;74.68
80405;BME280;69733;48.744;9.176;2023-10-09T06:03:31;97313.44;;;12.01;74.59
80405;BME280;69733;48.744;9.176;2023-10-09T06:06:15;97301.28;;;12.05;74.37
80405;BME280;69733;48.744;9.176;2023-10-09T06:09:10;97308.63;;;12.10;74.41
80405;BME280;69733;48.744;9.176;2023-10-09T06:11:55;97307.97;;;12.14;74.19
80405;BME280;69733;48.744;9.176;2023-10-09T06:14:41;97308.06;;;12.19;74.19
80405;BME280;69733;48.744;9.176;2023-10-09T06:17:23;97321.56;;;12.24;74.25
80405;BME280;69733;48.744;9.176;2023-10-09T06:19:48;97322.97;;;12.27;74.41
80405;BME280;69733;48.744;9.176;2023-10-09T06:22:14;97317.97;;;12.30;74.12
80405;BME280;69733;48.744;9.176;2023-10-09T06:24:58;97322.66;;;12.35;74.12
80405;BME280;69733;48.744;9.176;2023-10-09T06:27:33;97326.50;;;12.39;74.15
80405;BME280;69733;48.744;9.176;2023-10-09T06:29:59;97325.00;;;12.43;73.98
80405;BME280;69733;48.744;9.176;2023-10-09T06:32:48;97324.09;;;12.49;74.07
80405;BME280;69733;48.744;9.176;2023-10-09T06:35:20;97320.75;;;12.54;74.03
80405;BME280;69733;48.744;9.176;2023-10-09T06:37:55;97325.38;;;12.58;73.81
80405;BME280;69733;48.744;9.176;2023-10-09T06:40:47;97328.19;;;12.63;73.85
80405;BME280;69733;48.744;9.176;2023-10-09T06:43:31;97337.13;;;12.69;74.19
80405;BME280;69733;48.744;9.176;2023-10-09T06:46:02;97337.28;;;12.74;73.80
80405;BME280;69733;48.744;9.176;2023-10-09T06:48:51;97343.81;;;12.78;73.94
80405;BME280;69733;48.744;9.176;2023-10-09T06:51:22;97340.19;;;12.84;73.88
80405;BME280;69733;48.744;9.176;2023-10-09T06:53:55;97341.94;;;12.90;73.87
80405;BME280;69733;48.744;9.176;2023-10-09T06:56:30;97349.06;;;12.96;73.83
80405;BME280;69733;48.744;9.176;2023-10-09T06:59:05;97339.31;;;13.02;73.66
80405;BME280;69733;48.744;9.176;2023-10-09T07:01:47;97345.34;;;13.09;73.67
80405;BME280;69733;48.744;9.176;2023-10-09T07:04:33;97345.06;;;13.17;73.64
80405;BME280;69733;48.744;9.176;2023-10-09T07:07:01;97345.75;;;13.24;73.60
80405;BME280;69733;48.744;9.176;2023-10-09T07:09:27;97338.66;;;13.29;73.56
80405;BME280;69733;48.744;9.176;2023-10-09T07:12:08;97345.31;;;13.38;73.48
80405;BME280;69733;48.744;9.176;2023-10-09T07:14:51;97346.00;;;13.45;73.06
80405;BME280;69733;48.744;9.176;2023-10-09T07:17:16;97346.69;;;13.53;73.33
80405;BME280;69733;48.744;9.176;2023-10-09T07:19:49;97347.38;;;13.60;73.32
80405;BME280;69733;48.744;9.176;2023-10-09T07:22:15;97342.72;;;13.67;73.40
80405;BME280;69733;48.744;9.176;2023-10-09T07:24:47;97335.41;;;13.74;73.04
80405;BME280;69733;48.744;9.176;2023-10-09T07:27:19;97331.06;;;13.84;73.03
80405;BME280;69733;48.744;9.176;2023-10-09T07:30:05;97339.31;;;13.94;72.86
80405;BME280;69733;48.744;9.176;2023-10-09T07:32:53;97337.06;;;14.03;72.89
80405;BME280;69733;48.744;9.176;2023-10-09T07:35:20;97337.75;;;14.10;72.81
80405;BME280;69733;48.744;9.176;2023-10-09T07:38:05;97333.88;;;14.18;72.92
80405;BME280;69733;48.744;9.176;2023-10-09T07:40:34;97336.41;;;14.24;72.84
80405;BME280;69733;48.744;9.176;2023-10-09T07:43:17;97343.50;;;14.30;72.56
80405;BME280;69733;48.744;9.176;2023-10-09T07:45:43;97336.66;;;14.34;72.99
80405;BME280;69733;48.744;9.176;2023-10-09T07:48:24;97349.09;;;14.40;72.80
80405;BME280;69733;48.744;9.176;2023-10-09T07:51:04;97345.22;;;14.48;72.60
80405;BME280;69733;48.744;9.176;2023-10-09T07:53:30;97341.59;;;14.54;72.71
80405;BME280;69733;48.744;9.176;2023-10-09T07:56:08;97350.06;;;14.63;72.55
80405;BME280;69733;48.744;9.176;2023-10-09T07:58:36;97345.09;;;14.71;72.61
80405;BME280;69733;48.744;9.176;2023-10-09T08:01:12;97343.19;;;14.83;72.34
80405;BME280;69733;48.744;9.176;2023-10-09T08:04:04;97351.13;;;14.95;72.40
80405;BME280;69733;48.744;9.176;2023-10-09T08:06:41;97352.94;;;15.06;72.05
80405;BME280;69733;48.744;9.176;2023-10-09T08:09:10;97350.19;;;15.18;71.95
80405;BME280;69733;48.744;9.176;2023-10-09T08:11:44;97353.84;;;15.28;72.04
80405;BME280;69733;48.744;9.176;2023-10-09T08:14:13;97356.19;;;15.41;71.76
80405;BME280;69733;48.744;9.176;2023-10-09T08:17:05;97357.03;;;15.59;71.48
80405;BME280;69733;48.744;9.176;2023-10-09T08:19:51;97355.63;;;15.73;71.02
80405;BME280;69733;48.744;9.176;2023-10-09T08:22:24;97360.38;;;15.87;71.19
80405;BME280;69733;48.744;9.176;2023-10-09T08:24:51;97360.84;;;16.01;71.09
80405;BME280;69733;48.744;9.176;2023-10-09T08:30:02;97361.72;;;16.28;70.70
80405;BME280;69733;48.744;9.176;2023-10-09T08:32:47;97365.63;;;16.42;70.75
80405;BME280;69733;48.744;9.176;2023-10-09T08:35:51;97368.25;;;16.59;70.43
80405;BME280;69733;48.744;9.176;2023-10-09T08:38:20;97360.59;;;16.73;70.56
80405;BME280;69733;48.744;9.176;2023-10-09T08:40:49;97362.91;;;16.86;70.31
80405;BME280;69733;48.744;9.176;2023-10-09T08:43:20;97369.19;;;16.97;70.22
80405;BME280;69733;48.744;9.176;2023-10-09T08:45:51;97366.31;;;17.08;70.08
80405;BME280;69733;48.744;9.176;2023-10-09T08:48:19;97363.69;;;17.13;70.22
80405;BME280;69733;48.744;9.176;2023-10-09T08:50:47;97360.47;;;17.16;70.33
80405;BME280;69733;48.744;9.176;2023-10-09T08:53:15;97355.94;;;17.22;70.50
80405;BME280;69733;48.744;9.176;2023-10-09T08:55:44;97358.41;;;17.23;70.50
80405;BME280;69733;48.744;9.176;2023-10-09T08:58:11;97356.53;;;17.29;70.58
80405;BME280;69733;48.744;9.176;2023-10-09T09:00:48;97363.03;;;17.33;70.66
80405;BME280;69733;48.744;9.176;2023-10-09T09:03:20;97363.84;;;17.33;70.49
80405;BME280;69733;48.744;9.176;2023-10-09T09:06:00;97367.13;;;17.40;70.39
80405;BME280;69733;48.744;9.176;2023-10-09T09:08:33;97368.78;;;17.47;70.31
80405;BME280;69733;48.744;9.176;2023-10-09T09:11:15;97362.41;;;17.53;70.20
80405;BME280;69733;48.744;9.176;2023-10-09T09:16:25;97367.88;;;17.68;69.84
80405;BME280;69733;48.744;9.176;2023-10-09T09:19:01;97367.16;;;17.77;69.63
80405;BME280;69733;48.744;9.176;2023-10-09T09:21:48;97371.25;;;17.85;69.56
80405;BME280;69733;48.744;9.176;2023-10-09T09:24:14;97373.19;;;17.95;69.43
80405;BME280;69733;48.744;9.176;2023-10-09T09:26:46;97384.28;;;18.08;69.09
80405;BME280;69733;48.744;9.176;2023-10-09T09:29:15;97382.75;;;18.22;68.97
80405;BME280;69733;48.744;9.176;2023-10-09T09:31:55;97389.28;;;18.36;68.80
80405;BME280;69733;48.744;9.176;2023-10-09T09:34:43;97386.09;;;18.45;68.37
80405;BME280;69733;48.744;9.176;2023-10-09T09:37:18;97380.22;;;18.58;68.18
80405;BME280;69733;48.744;9.176;2023-10-09T09:39:45;97391.88;;;18.73;68.05
80405;BME280;69733;48.744;9.176;2023-10-09T09:42:14;97384.63;;;18.84;67.93
80405;BME280;69733;48.744;9.176;2023-10-09T09:44:39;97385.19;;;18.91;67.62
80405;BME280;69733;48.744;9.176;2023-10-09T09:47:15;97385.16;;;18.96;67.59
80405;BME280;69733;48.744;9.176;2023-10-09T09:49:50;97388.94;;;19.00;67.44
80405;BME280;69733;48.744;9.176;2023-10-09T09:52:25;97392.19;;;19.07;67.35
80405;BME280;69733;48.744;9.176;2023-10-09T09:54:51;97393.28;;;19.11;67.10
80405;BME280;69733;48.744;9.176;2023-10-09T09:57:18;97386.28;;;19.15;66.85
80405;BME280;69733;48.744;9.176;2023-10-09T09:59:51;97383.56;;;19.20;66.79
80405;BME280;69733;48.744;9.176;2023-10-09T10:02:26;97388.47;;;19.23;66.55
80405;BME280;69733;48.744;9.176;2023-10-09T10:04:55;97386.84;;;19.32;66.30
80405;BME280;69733;48.744;9.176;2023-10-09T10:07:23;97389.00;;;19.41;66.25
80405;BME280;69733;48.744;9.176;2023-10-09T10:09:50;97387.69;;;19.48;65.87
80405;BME280;69733;48.744;9.176;2023-10-09T10:15:57;97376.63;;;19.55;65.60
80405;BME280;69733;48.744;9.176;2023-10-09T10:18:23;97388.19;;;19.60;65.49
80405;BME280;69733;48.744;9.176;2023-10-09T10:23:44;97385.22;;;19.77;64.67
80405;BME280;69733;48.744;9.176;2023-10-09T10:26:16;97384.94;;;19.88;64.48
80405;BME280;69733;48.744;9.176;2023-10-09T10:28:43;97387.34;;;20.00;63.99
80405;BME280;69733;48.744;9.176;2023-10-09T10:31:09;97380.53;;;20.13;63.33
80405;BME280;69733;48.744;9.176;2023-10-09T10:36:23;97370.25;;;20.30;63.02
80405;BME280;69733;48.744;9.176;2023-10-09T10:39:08;97367.53;;;20.35;62.78
80405;BME280;69733;48.744;9.176;2023-10-09T10:42:02;97375.63;;;20.40;62.51
80405;BME280;69733;48.744;9.176;2023-10-09T10:44:31;97368.56;;;20.44;62.30
80405;BME280;69733;48.744;9.176;2023-10-09T10:47:12;97369.41;;;20.40;61.93
80405;BME280;69733;48.744;9.176;2023-10-09T10:49:53;97360.75;;;20.38;62.07
80405;BME280;69733;48.744;9.176;2023-10-09T10:52:24;97359.16;;;20.37;62.13
80405;BME280;69733;48.744;9.176;2023-10-09T10:55:16;97360.53;;;20.29;61.81
80405;BME280;69733;48.744;9.176;2023-10-09T10:57:56;97358.66;;;20.29;61.71
80405;BME280;69733;48.744;9.176;2023-10-09T11:00:35;97359.97;;;20.32;61.32
80405;BME280;69733;48.744;9.176;2023-10-09T11:03:20;97362.94;;;20.30;61.20
80405;BME280;69733;48.744;9.176;2023-10-09T11:06:08;97355.91;;;20.24;61.18
80405;BME280;69733;48.744;9.176;2023-10-09T11:08:47;97370.25;;;20.30;60.57
80405;BME280;69733;48.744;9.176;2023-10-09T11:11:20;97363.44;;;20.38;60.25
80405;BME280;69733;48.744;9.176;2023-10-09T11:13:45;97362.88;;;20.46;59.85
80405;BME280;69733;48.744;9.176;2023-10-09T11:16:24;97364.72;;;20.60;59.24
80405;BME280;69733;48.744;9.176;2023-10-09T11:19:13;97366.78;;;20.73;58.70
80405;BME280;69733;48.744;9.176;2023-10-09T11:21:59;97373.75;;;20.90;57.98
80405;BME280;69733;48.744;9.176;2023-10-09T11:24:48;97368.47;;;21.08;57.71
80405;BME280;69733;48.744;9.176;2023-10-09T11:27:26;97373.25;;;21.26;57.04
80405;BME280;69733;48.744;9.176;2023-10-09T11:29:57;97369.94;;;21.34;56.75
80405;BME280;69733;48.744;9.176;2023-10-09T11:32:30;97371.22;;;21.42;56.50
80405;BME280;69733;48.744;9.176;2023-10-09T11:35:11;97367.97;;;21.40;56.20
80405;BME280;69733;48.744;9.176;2023-10-09T11:37:40;97365.09;;;21.31;56.49
80405;BME280;69733;48.744;9.176;2023-10-09T11:40:27;97361.94;;;21.19;56.13
80405;BME280;69733;48.744;9.176;2023-10-09T11:42:59;97362.81;;;21.05;56.41
80405;BME280;69733;48.744;9.176;2023-10-09T11:45:27;97362.88;;;20.95;56.13
80405;BME280;69733;48.744;9.176;2023-10-09T11:48:16;97349.97;;;20.81;55.97
80405;BME280;69733;48.744;9.176;2023-10-09T11:50:59;97345.72;;;20.70;56.14
80405;BME280;69733;48.744;9.176;2023-10-09T11:53:24;97340.63;;;20.64;55.60
80405;BME280;69733;48.744;9.176;2023-10-09T11:55:50;97344.44;;;20.58;55.27
80405;BME280;69733;48.744;9.176;2023-10-09T11:58:18;97345.53;;;20.52;55.21
80405;BME280;69733;48.744;9.176;2023-10-09T12:00:56;97349.34;;;20.51;54.94
80405;BME280;69733;48.744;9.176;2023-10-09T12:03:27;97343.91;;;20.56;54.46
80405;BME280;69733;48.744;9.176;2023-10-09T12:06:00;97339.53;;;20.65;54.19
80405;BME280;69733;48.744;9.176;2023-10-09T12:08:39;97340.03;;;20.72;53.82
80405;BME280;69733;48.744;9.176;2023-10-09T12:11:07;97329.75;;;20.74;53.74
80405;BME280;69733;48.744;9.176;2023-10-09T12:13:35;97315.66;;;20.77;53.67
80405;BME280;69733;48.744;9.176;2023-10-09T12:16:01;97324.56;;;20.82;53.39
80405;BME280;69733;48.744;9.176;2023-10-09T12:18:33;97320.69;;;20.94;52.91
80405;BME280;69733;48.744;9.176;2023-10-09T12:21:00;97311.13;;;21.11;52.58
80405;BME280;69733;48.744;9.176;2023-10-09T12:23:28;97311.53;;;21.28;52.35
80405;BME280;69733;48.744;9.176;2023-10-09T12:25:53;97311.91;;;21.46;51.93
80405;BME280;69733;48.744;9.176;2023-10-09T12:28:22;97303.41;;;21.57;51.88
80405;BME280;69733;48.744;9.176;2023-10-09T12:30:48;97300.59;;;21.67;51.50
80405;BME280;69733;48.744;9.176;2023-10-09T12:33:17;97294.28;;;21.72;51.81
80405;BME280;69733;48.744;9.176;2023-10-09T12:35:44;97284.78;;;21.74;51.28
80405;BME280;69733;48.744;9.176;2023-10-09T12:38:13;97279.53;;;21.83;50.84
80405;BME280;69733;48.744;9.176;2023-10-09T12:40:43;97265.94;;;21.88;50.09
80405;BME280;69733;48.744;9.176;2023-10-09T12:43:18;97259.38;;;21.94;49.82
80405;BME280;69733;48.744;9.176;2023-10-09T12:45:45;97271.53;;;21.97;49.06
80405;BME280;69733;48.744;9.176;2023-10-09T12:48:11;97268.84;;;21.97;48.48
80405;BME280;69733;48.744;9.176;2023-10-09T12:50:38;97276.19;;;21.96;47.76
80405;BME280;69733;48.744;9.176;2023-10-09T12:53:10;97277.78;;;21.97;47.26
80405;BME280;69733;48.744;9.176;2023-10-09T12:55:39;97280.72;;;22.01;46.32
80405;BME280;69733;48.744;9.176;2023-10-09T12:58:06;97279.91;;;22.00;45.81
80405;BME280;69733;48.744;9.176;2023-10-09T13:00:36;97282.09;;;21.98;45.49
80405;BME280;69733;48.744;9.176;2023-10-09T13:03:05;97289.16;;;21.99;44.96
80405;BME280;69733;48.744;9.176;2023-10-09T13:08:18;97288.19;;;21.85;44.47
80405;BME280;69733;48.744;9.176;2023-10-09T13:10:52;97284.50;;;21.76;44.03
80405;BME280;69733;48.744;9.176;2023-10-09T13:13:25;97292.47;;;21.67;43.47
80405;BME280;69733;48.744;9.176;2023-10-09T13:16:01;97280.91;;;21.57;42.98
80405;BME280;69733;48.744;9.176;2023-10-09T13:18:31;97288.59;;;21.45;42.75
80405;BME280;69733;48.744;9.176;2023-10-09T13:20:56;97278.44;;;21.31;42.20
80405;BME280;69733;48.744;9.176;2023-10-09T13:23:21;97275.28;;;21.24;41.97
80405;BME280;69733;48.744;9.176;2023-10-09T13:25:53;97281.06;;;21.13;41.63
80405;BME280;69733;48.744;9.176;2023-10-09T13:28:18;97282.44;;;21.05;41.37
80405;BME280;69733;48.744;9.176;2023-10-09T13:30:45;97277.06;;;21.00;40.97
80405;BME280;69733;48.744;9.176;2023-10-09T13:33:14;97275.44;;;20.99;40.33
80405;BME280;69733;48.744;9.176;2023-10-09T13:35:42;97269.00;;;20.95;39.94
80405;BME280;69733;48.744;9.176;2023-10-09T13:38:16;97267.38;;;20.94;39.84
80405;BME280;69733;48.744;9.176;2023-10-09T13:40:42;97268.75;;;20.92;39.32
80405;BME280;69733;48.744;9.176;2023-10-09T13:43:07;97273.09;;;20.88;39.11
80405;BME280;69733;48.744;9.176;2023-10-09T13:45:40;97265.84;;;20.83;38.80
80405;BME280;69733;48.744;9.176;2023-10-09T13:48:05;97263.16;;;20.83;38.69
80405;BME280;69733;48.744;9.176;2023-10-09T13:50:36;97258.25;;;20.85;38.43
80405;BME280;69733;48.744;9.176;2023-10-09T13:53:07;97257.44;;;20.84;38.00
80405;BME280;69733;48.744;9.176;2023-10-09T13:55:38;97256.34;;;20.85;37.78
80405;BME280;69733;48.744;9.176;2023-10-09T13:58:09;97248.72;;;20.93;37.56